sensor_id;sensor_type;location;lat;lon;timestamp;temperature;humidity
26053;DHT22;13826;51.186;4.450;2023-06-26T00:02:25;24.60;1.00
26053;DHT22;13826;51.186;4.450;2023-06-26T00:04:50;24.40;7.00
26053;DHT22;13826;51.186;4.450;2023-06-26T00:07:22;24.30;99.90
26053;DHT22;13826;51.186;4.450;2023-06-26T00:09:47;24.20;1.00
26053;DHT22;13826;51.186;4.450;2023-06-26T00:12:13;24.20;99.90
26053;DHT22;13826;51.186;4.450;2023-06-26T00:14:38;24.20;1.00
26053;DHT22;13826;51.186;4.450;2023-06-26T00:17:04;24.10;1.00
26053;DHT22;13826;51.186;4.450;2023-06-26T00:19:30;24.10;1.00
26053;DHT22;13826;51.186;4.450;2023-06-26T00:21:55;24.00;1.00
26053;DHT22;13826;51.186;4.450;2023-06-26T00:24:21;24.00;54.80
26053;DHT22;13826;51.186;4.450;2023-06-26T00:26:46;23.90;99.90
26053;DHT22;13826;51.186;4.450;2023-06-26T00:29:12;23.80;1.00
26053;DHT22;13826;51.186;4.450;2023-06-26T00:31:38;23.90;1.00
26053;DHT22;13826;51.186;4.450;2023-06-26T00:34:05;23.70;1.00
26053;DHT22;13826;51.186;4.450;2023-06-26T00:36:31;23.70;17.00
26053;DHT22;13826;51.186;4.450;2023-06-26T00:38:57;23.60;99.90
26053;DHT22;13826;51.186;4.450;2023-06-26T00:41:22;23.60;1.00
26053;DHT22;13826;51.186;4.450;2023-06-26T00:43:48;23.50;1.00
26053;DHT22;13826;51.186;4.450;2023-06-26T00:46:13;23.50;1.00
26053;DHT22;13826;51.186;4.450;2023-06-26T00:48:40;23.40;99.90
26053;DHT22;13826;51.186;4.450;2023-06-26T00:51:06;23.40;1.00
26053;DHT22;13826;51.186;4.450;2023-06-26T00:53:32;23.30;99.90
26053;DHT22;13826;51.186;4.450;2023-06-26T00:55:58;23.30;1.00
26053;DHT22;13826;51.186;4.450;2023-06-26T00:58:24;23.10;99.90
26053;DHT22;13826;51.186;4.450;2023-06-26T01:00:53;23.10;1.00
26053;DHT22;13826;51.186;4.450;2023-06-26T01:03:19;23.10;1.00
26053;DHT22;13826;51.186;4.450;2023-06-26T01:05:46;23.00;99.90
26053;DHT22;13826;51.186;4.450;2023-06-26T01:08:15;23.00;1.00
26053;DHT22;13826;51.186;4.450;2023-06-26T01:10:42;23.00;1.00
26053;DHT22;13826;51.186;4.450;2023-06-26T01:13:08;23.00;11.00
26053;DHT22;13826;51.186;4.450;2023-06-26T01:15:34;22.90;1.00
26053;DHT22;13826;51.186;4.450;2023-06-26T01:18:00;22.90;1.00
26053;DHT22;13826;51.186;4.450;2023-06-26T01:20:30;22.90;99.90
26053;DHT22;13826;51.186;4.450;2023-06-26T01:27:53;22.80;1.00
26053;DHT22;13826;51.186;4.450;2023-06-26T01:30:19;22.70;99.90
26053;DHT22;13826;51.186;4.450;2023-06-26T01:32:45;22.60;1.00
26053;DHT22;13826;51.186;4.450;2023-06-26T01:35:11;22.60;1.00
26053;DHT22;13826;51.186;4.450;2023-06-26T01:37:37;22.60;1.40
26053;DHT22;13826;51.186;4.450;2023-06-26T01:40:03;22.60;1.00
26053;DHT22;13826;51.186;4.450;2023-06-26T01:42:33;22.60;94.70
26053;DHT22;13826;51.186;4.450;2023-06-26T01:45:03;22.70;59.30
26053;DHT22;13826;51.186;4.450;2023-06-26T01:47:31;22.70;1.00
26053;DHT22;13826;51.186;4.450;2023-06-26T01:50:00;22.80;92.50
26053;DHT22;13826;51.186;4.450;2023-06-26T01:52:41;22.80;99.90
26053;DHT22;13826;51.186;4.450;2023-06-26T01:57:48;22.60;1.00
26053;DHT22;13826;51.186;4.450;2023-06-26T02:00:16;22.60;1.00
26053;DHT22;13826;51.186;4.450;2023-06-26T02:02:43;22.50;1.00
26053;DHT22;13826;51.186;4.450;2023-06-26T02:05:09;22.40;1.00
26053;DHT22;13826;51.186;4.450;2023-06-26T02:07:35;22.40;1.00
26053;DHT22;13826;51.186;4.450;2023-06-26T02:10:01;22.30;1.00
26053;DHT22;13826;51.186;4.450;2023-06-26T02:12:26;22.30;1.00
26053;DHT22;13826;51.186;4.450;2023-06-26T02:14:52;22.30;1.00
26053;DHT22;13826;51.186;4.450;2023-06-26T02:17:17;22.30;1.00
26053;DHT22;13826;51.186;4.450;2023-06-26T02:19:43;22.20;1.00
26053;DHT22;13826;51.186;4.450;2023-06-26T02:22:16;22.20;1.00
26053;DHT22;13826;51.186;4.450;2023-06-26T02:24:42;22.10;1.00
26053;DHT22;13826;51.186;4.450;2023-06-26T02:27:07;22.10;1.00
26053;DHT22;13826;51.186;4.450;2023-06-26T02:29:33;22.00;1.00
26053;DHT22;13826;51.186;4.450;2023-06-26T02:31:59;22.00;1.00
26053;DHT22;13826;51.186;4.450;2023-06-26T02:34:24;22.10;1.00
26053;DHT22;13826;51.186;4.450;2023-06-26T02:36:50;22.20;1.00
26053;DHT22;13826;51.186;4.450;2023-06-26T02:39:15;22.30;1.00
26053;DHT22;13826;51.186;4.450;2023-06-26T02:41:41;22.30;1.00
26053;DHT22;13826;51.186;4.450;2023-06-26T02:44:06;22.30;1.00
26053;DHT22;13826;51.186;4.450;2023-06-26T02:46:32;22.30;1.00
26053;DHT22;13826;51.186;4.450;2023-06-26T02:48:59;22.40;1.00
26053;DHT22;13826;51.186;4.450;2023-06-26T02:51:24;22.30;1.00
26053;DHT22;13826;51.186;4.450;2023-06-26T02:53:50;22.40;1.00
26053;DHT22;13826;51.186;4.450;2023-06-26T02:56:15;22.30;1.00
26053;DHT22;13826;51.186;4.450;2023-06-26T02:58:41;22.10;1.00
26053;DHT22;13826;51.186;4.450;2023-06-26T03:01:06;21.90;1.00
26053;DHT22;13826;51.186;4.450;2023-06-26T03:03:32;21.60;1.00
26053;DHT22;13826;51.186;4.450;2023-06-26T03:06:06;21.50;1.00
26053;DHT22;13826;51.186;4.450;2023-06-26T03:08:31;21.50;3.70
26053;DHT22;13826;51.186;4.450;2023-06-26T03:10:57;21.50;4.70
26053;DHT22;13826;51.186;4.450;2023-06-26T03:13:22;21.40;7.70
26053;DHT22;13826;51.186;4.450;2023-06-26T03:15:48;21.20;17.50
26053;DHT22;13826;51.186;4.450;2023-06-26T03:18:14;21.00;25.60
26053;DHT22;13826;51.186;4.450;2023-06-26T03:20:39;20.90;32.00
26053;DHT22;13826;51.186;4.450;2023-06-26T03:23:05;20.80;33.00
26053;DHT22;13826;51.186;4.450;2023-06-26T03:25:30;20.80;34.90
26053;DHT22;13826;51.186;4.450;2023-06-26T03:27:56;20.80;37.20
26053;DHT22;13826;51.186;4.450;2023-06-26T03:30:21;20.70;39.50
26053;DHT22;13826;51.186;4.450;2023-06-26T03:32:47;20.80;39.50
26053;DHT22;13826;51.186;4.450;2023-06-26T03:35:12;20.80;38.60
26053;DHT22;13826;51.186;4.450;2023-06-26T03:37:38;21.00;32.50
26053;DHT22;13826;51.186;4.450;2023-06-26T03:40:04;20.90;32.10
26053;DHT22;13826;51.186;4.450;2023-06-26T03:42:30;20.80;36.30
26053;DHT22;13826;51.186;4.450;2023-06-26T03:44:55;20.70;38.40
26053;DHT22;13826;51.186;4.450;2023-06-26T03:47:21;20.60;42.80
26053;DHT22;13826;51.186;4.450;2023-06-26T03:49:46;20.50;42.50
26053;DHT22;13826;51.186;4.450;2023-06-26T03:52:12;20.60;43.80
26053;DHT22;13826;51.186;4.450;2023-06-26T03:54:37;20.50;42.70
26053;DHT22;13826;51.186;4.450;2023-06-26T03:57:03;20.60;42.80
26053;DHT22;13826;51.186;4.450;2023-06-26T03:59:29;20.70;33.60
26053;DHT22;13826;51.186;4.450;2023-06-26T04:01:54;20.70;33.30
26053;DHT22;13826;51.186;4.450;2023-06-26T04:04:20;20.60;40.30
26053;DHT22;13826;51.186;4.450;2023-06-26T04:06:45;20.60;38.50
26053;DHT22;13826;51.186;4.450;2023-06-26T04:09:11;20.70;36.40
26053;DHT22;13826;51.186;4.450;2023-06-26T04:11:37;20.70;34.50
26053;DHT22;13826;51.186;4.450;2023-06-26T04:14:02;20.80;32.70
26053;DHT22;13826;51.186;4.450;2023-06-26T04:16:28;20.60;32.80
26053;DHT22;13826;51.186;4.450;2023-06-26T04:18:54;20.70;31.20
26053;DHT22;13826;51.186;4.450;2023-06-26T04:21:21;21.10;25.10
26053;DHT22;13826;51.186;4.450;2023-06-26T04:23:50;21.40;9.90
26053;DHT22;13826;51.186;4.450;2023-06-26T04:26:15;21.70;1.00
26053;DHT22;13826;51.186;4.450;2023-06-26T04:28:41;21.80;1.00
26053;DHT22;13826;51.186;4.450;2023-06-26T04:31:07;21.70;1.00
26053;DHT22;13826;51.186;4.450;2023-06-26T04:33:34;21.40;1.00
26053;DHT22;13826;51.186;4.450;2023-06-26T04:36:02;21.40;1.00
26053;DHT22;13826;51.186;4.450;2023-06-26T04:38:29;21.30;1.00
26053;DHT22;13826;51.186;4.450;2023-06-26T04:40:54;21.30;1.00
26053;DHT22;13826;51.186;4.450;2023-06-26T04:43:20;21.40;1.00
26053;DHT22;13826;51.186;4.450;2023-06-26T04:45:45;21.70;1.00
26053;DHT22;13826;51.186;4.450;2023-06-26T04:48:11;22.10;1.00
26053;DHT22;13826;51.186;4.450;2023-06-26T04:50:36;22.70;1.00
26053;DHT22;13826;51.186;4.450;2023-06-26T04:53:02;23.30;1.00
26053;DHT22;13826;51.186;4.450;2023-06-26T04:55:27;23.30;1.00
26053;DHT22;13826;51.186;4.450;2023-06-26T04:57:53;23.20;1.00
26053;DHT22;13826;51.186;4.450;2023-06-26T05:00:19;24.00;1.00
26053;DHT22;13826;51.186;4.450;2023-06-26T05:02:45;24.80;3.70
26053;DHT22;13826;51.186;4.450;2023-06-26T05:05:10;25.20;99.90
26053;DHT22;13826;51.186;4.450;2023-06-26T05:07:37;25.20;1.00
26053;DHT22;13826;51.186;4.450;2023-06-26T05:10:03;25.40;1.00
26053;DHT22;13826;51.186;4.450;2023-06-26T05:12:28;26.00;1.00
26053;DHT22;13826;51.186;4.450;2023-06-26T05:14:54;26.60;99.90
26053;DHT22;13826;51.186;4.450;2023-06-26T05:17:19;27.10;1.00
26053;DHT22;13826;51.186;4.450;2023-06-26T05:19:45;27.30;99.90
26053;DHT22;13826;51.186;4.450;2023-06-26T05:22:12;27.30;1.00
26053;DHT22;13826;51.186;4.450;2023-06-26T05:24:38;27.20;1.00
26053;DHT22;13826;51.186;4.450;2023-06-26T05:27:04;28.00;99.90
26053;DHT22;13826;51.186;4.450;2023-06-26T05:29:30;27.60;99.90
26053;DHT22;13826;51.186;4.450;2023-06-26T05:31:59;28.00;99.90
26053;DHT22;13826;51.186;4.450;2023-06-26T05:34:25;27.70;99.90
26053;DHT22;13826;51.186;4.450;2023-06-26T05:36:57;28.10;38.00
26053;DHT22;13826;51.186;4.450;2023-06-26T05:39:23;29.10;1.00
26053;DHT22;13826;51.186;4.450;2023-06-26T05:41:50;28.70;1.00
26053;DHT22;13826;51.186;4.450;2023-06-26T05:44:15;29.30;1.00
26053;DHT22;13826;51.186;4.450;2023-06-26T05:46:41;30.00;99.90
26053;DHT22;13826;51.186;4.450;2023-06-26T05:49:07;30.20;99.90
26053;DHT22;13826;51.186;4.450;2023-06-26T05:51:32;30.80;99.90
26053;DHT22;13826;51.186;4.450;2023-06-26T05:53:58;31.20;99.90
26053;DHT22;13826;51.186;4.450;2023-06-26T05:56:24;30.40;99.90
26053;DHT22;13826;51.186;4.450;2023-06-26T05:58:49;30.90;90.10
26053;DHT22;13826;51.186;4.450;2023-06-26T06:01:15;31.60;59.60
26053;DHT22;13826;51.186;4.450;2023-06-26T06:03:41;31.60;1.00
26053;DHT22;13826;51.186;4.450;2023-06-26T06:06:07;31.20;1.00
26053;DHT22;13826;51.186;4.450;2023-06-26T06:08:32;32.00;1.00
26053;DHT22;13826;51.186;4.450;2023-06-26T06:10:59;32.10;1.00
26053;DHT22;13826;51.186;4.450;2023-06-26T06:13:25;32.50;1.00
26053;DHT22;13826;51.186;4.450;2023-06-26T06:15:51;33.40;1.00
26053;DHT22;13826;51.186;4.450;2023-06-26T06:18:16;33.10;1.00
26053;DHT22;13826;51.186;4.450;2023-06-26T06:20:42;32.90;1.00
26053;DHT22;13826;51.186;4.450;2023-06-26T06:23:07;33.50;1.00
26053;DHT22;13826;51.186;4.450;2023-06-26T06:25:33;32.90;1.00
26053;DHT22;13826;51.186;4.450;2023-06-26T06:27:58;32.90;1.00
26053;DHT22;13826;51.186;4.450;2023-06-26T06:30:24;32.70;1.00
26053;DHT22;13826;51.186;4.450;2023-06-26T06:32:50;32.00;1.00
26053;DHT22;13826;51.186;4.450;2023-06-26T06:35:18;32.20;1.00
26053;DHT22;13826;51.186;4.450;2023-06-26T06:37:44;31.50;1.00
26053;DHT22;13826;51.186;4.450;2023-06-26T06:40:10;31.30;1.00
26053;DHT22;13826;51.186;4.450;2023-06-26T06:42:35;32.40;1.00
26053;DHT22;13826;51.186;4.450;2023-06-26T06:45:04;32.30;1.00
26053;DHT22;13826;51.186;4.450;2023-06-26T06:47:30;32.30;1.00
26053;DHT22;13826;51.186;4.450;2023-06-26T06:49:56;32.00;1.00
26053;DHT22;13826;51.186;4.450;2023-06-26T06:52:21;31.50;1.00
26053;DHT22;13826;51.186;4.450;2023-06-26T06:54:51;30.60;1.00
26053;DHT22;13826;51.186;4.450;2023-06-26T06:57:16;30.70;1.00
26053;DHT22;13826;51.186;4.450;2023-06-26T06:59:42;31.80;1.00
26053;DHT22;13826;51.186;4.450;2023-06-26T07:02:08;32.60;1.00
26053;DHT22;13826;51.186;4.450;2023-06-26T07:04:34;33.40;99.90
26053;DHT22;13826;51.186;4.450;2023-06-26T07:06:59;32.90;99.90
26053;DHT22;13826;51.186;4.450;2023-06-26T07:09:25;33.10;99.90
26053;DHT22;13826;51.186;4.450;2023-06-26T07:11:50;33.70;99.90
26053;DHT22;13826;51.186;4.450;2023-06-26T07:14:16;33.80;99.90
26053;DHT22;13826;51.186;4.450;2023-06-26T07:16:41;34.20;99.90
26053;DHT22;13826;51.186;4.450;2023-06-26T07:19:07;34.60;99.90
26053;DHT22;13826;51.186;4.450;2023-06-26T07:21:32;34.40;99.90
26053;DHT22;13826;51.186;4.450;2023-06-26T07:23:58;34.70;99.90
26053;DHT22;13826;51.186;4.450;2023-06-26T07:26:23;35.20;99.90
26053;DHT22;13826;51.186;4.450;2023-06-26T07:28:49;35.70;99.90
26053;DHT22;13826;51.186;4.450;2023-06-26T07:31:15;36.50;99.90
26053;DHT22;13826;51.186;4.450;2023-06-26T07:33:42;36.10;99.90
26053;DHT22;13826;51.186;4.450;2023-06-26T07:36:07;36.60;99.90
26053;DHT22;13826;51.186;4.450;2023-06-26T07:38:33;37.10;99.90
26053;DHT22;13826;51.186;4.450;2023-06-26T07:40:58;36.50;99.90
26053;DHT22;13826;51.186;4.450;2023-06-26T07:43:24;36.80;99.90
26053;DHT22;13826;51.186;4.450;2023-06-26T07:45:50;36.80;99.90
26053;DHT22;13826;51.186;4.450;2023-06-26T07:48:16;35.60;99.90
26053;DHT22;13826;51.186;4.450;2023-06-26T07:50:42;35.20;99.90
26053;DHT22;13826;51.186;4.450;2023-06-26T07:53:08;35.80;99.90
26053;DHT22;13826;51.186;4.450;2023-06-26T07:55:33;35.90;99.90
26053;DHT22;13826;51.186;4.450;2023-06-26T07:57:59;37.30;99.90
26053;DHT22;13826;51.186;4.450;2023-06-26T08:00:25;37.40;99.90
26053;DHT22;13826;51.186;4.450;2023-06-26T08:02:51;37.10;99.90
26053;DHT22;13826;51.186;4.450;2023-06-26T08:05:17;36.50;99.90
26053;DHT22;13826;51.186;4.450;2023-06-26T08:07:43;36.40;99.90
26053;DHT22;13826;51.186;4.450;2023-06-26T08:10:09;36.70;99.90
26053;DHT22;13826;51.186;4.450;2023-06-26T08:12:35;35.90;99.90
26053;DHT22;13826;51.186;4.450;2023-06-26T08:15:02;35.80;99.90
26053;DHT22;13826;51.186;4.450;2023-06-26T08:17:28;36.80;99.90
26053;DHT22;13826;51.186;4.450;2023-06-26T08:19:53;37.50;99.90
26053;DHT22;13826;51.186;4.450;2023-06-26T08:22:19;37.30;99.90
26053;DHT22;13826;51.186;4.450;2023-06-26T08:24:45;36.10;99.90
26053;DHT22;13826;51.186;4.450;2023-06-26T08:27:10;36.70;99.90
26053;DHT22;13826;51.186;4.450;2023-06-26T08:29:36;36.80;99.90
26053;DHT22;13826;51.186;4.450;2023-06-26T08:32:01;37.20;99.90
26053;DHT22;13826;51.186;4.450;2023-06-26T08:34:27;38.20;99.90
26053;DHT22;13826;51.186;4.450;2023-06-26T08:36:53;36.50;99.90
26053;DHT22;13826;51.186;4.450;2023-06-26T08:39:19;36.60;99.90
26053;DHT22;13826;51.186;4.450;2023-06-26T08:41:44;37.70;99.90
26053;DHT22;13826;51.186;4.450;2023-06-26T08:44:10;38.70;99.90
26053;DHT22;13826;51.186;4.450;2023-06-26T08:46:36;38.50;99.90
26053;DHT22;13826;51.186;4.450;2023-06-26T08:49:04;38.00;99.90
26053;DHT22;13826;51.186;4.450;2023-06-26T08:51:31;38.00;99.90
26053;DHT22;13826;51.186;4.450;2023-06-26T08:53:59;36.20;99.90
26053;DHT22;13826;51.186;4.450;2023-06-26T08:56:32;36.50;99.90
26053;DHT22;13826;51.186;4.450;2023-06-26T08:58:58;35.80;99.90
26053;DHT22;13826;51.186;4.450;2023-06-26T09:01:24;36.10;99.90
26053;DHT22;13826;51.186;4.450;2023-06-26T09:03:50;36.80;99.90
26053;DHT22;13826;51.186;4.450;2023-06-26T09:06:16;38.30;99.90
26053;DHT22;13826;51.186;4.450;2023-06-26T09:08:43;37.30;99.90
26053;DHT22;13826;51.186;4.450;2023-06-26T09:11:09;37.10;99.90
26053;DHT22;13826;51.186;4.450;2023-06-26T09:13:34;37.60;99.90
26053;DHT22;13826;51.186;4.450;2023-06-26T09:16:04;38.50;99.90
26053;DHT22;13826;51.186;4.450;2023-06-26T09:18:29;37.10;99.90
26053;DHT22;13826;51.186;4.450;2023-06-26T09:20:55;36.30;99.90
26053;DHT22;13826;51.186;4.450;2023-06-26T09:23:21;36.40;99.90
26053;DHT22;13826;51.186;4.450;2023-06-26T09:25:47;36.40;99.90
26053;DHT22;13826;51.186;4.450;2023-06-26T09:28:12;36.40;99.90
26053;DHT22;13826;51.186;4.450;2023-06-26T09:30:38;37.30;99.90
26053;DHT22;13826;51.186;4.450;2023-06-26T09:33:19;36.90;99.90
26053;DHT22;13826;51.186;4.450;2023-06-26T09:35:45;35.60;99.90
26053;DHT22;13826;51.186;4.450;2023-06-26T09:38:14;35.70;99.90
26053;DHT22;13826;51.186;4.450;2023-06-26T09:40:43;36.30;99.90
26053;DHT22;13826;51.186;4.450;2023-06-26T09:43:09;37.50;99.90
26053;DHT22;13826;51.186;4.450;2023-06-26T09:45:39;36.40;99.90
26053;DHT22;13826;51.186;4.450;2023-06-26T09:48:05;36.10;99.90
26053;DHT22;13826;51.186;4.450;2023-06-26T09:50:33;35.40;99.90
26053;DHT22;13826;51.186;4.450;2023-06-26T09:53:08;35.00;99.90
26053;DHT22;13826;51.186;4.450;2023-06-26T09:55:39;35.60;99.90
26053;DHT22;13826;51.186;4.450;2023-06-26T09:58:06;36.30;99.90
26053;DHT22;13826;51.186;4.450;2023-06-26T10:00:31;36.50;99.90
26053;DHT22;13826;51.186;4.450;2023-06-26T10:02:58;35.00;99.90
26053;DHT22;13826;51.186;4.450;2023-06-26T10:05:24;36.10;99.90
26053;DHT22;13826;51.186;4.450;2023-06-26T10:07:49;35.70;99.90
26053;DHT22;13826;51.186;4.450;2023-06-26T10:10:15;35.90;99.90
26053;DHT22;13826;51.186;4.450;2023-06-26T10:12:41;34.40;99.90
26053;DHT22;13826;51.186;4.450;2023-06-26T10:15:08;33.20;99.90
26053;DHT22;13826;51.186;4.450;2023-06-26T10:17:37;34.10;99.90
26053;DHT22;13826;51.186;4.450;2023-06-26T10:20:04;33.70;99.90
26053;DHT22;13826;51.186;4.450;2023-06-26T10:22:33;34.60;99.90
26053;DHT22;13826;51.186;4.450;2023-06-26T10:25:00;34.40;99.90
26053;DHT22;13826;51.186;4.450;2023-06-26T10:27:30;35.00;99.90
26053;DHT22;13826;51.186;4.450;2023-06-26T10:30:00;35.20;99.90
26053;DHT22;13826;51.186;4.450;2023-06-26T10:32:26;35.30;99.90
26053;DHT22;13826;51.186;4.450;2023-06-26T10:34:53;35.10;99.90
26053;DHT22;13826;51.186;4.450;2023-06-26T10:37:20;34.40;99.90
26053;DHT22;13826;51.186;4.450;2023-06-26T10:39:52;34.40;99.90
26053;DHT22;13826;51.186;4.450;2023-06-26T10:42:34;33.50;99.90
26053;DHT22;13826;51.186;4.450;2023-06-26T10:47:46;32.40;99.90
26053;DHT22;13826;51.186;4.450;2023-06-26T10:50:32;33.10;99.90
26053;DHT22;13826;51.186;4.450;2023-06-26T10:53:21;33.70;99.90
26053;DHT22;13826;51.186;4.450;2023-06-26T10:55:48;34.20;99.90
26053;DHT22;13826;51.186;4.450;2023-06-26T11:03:41;35.40;99.90
26053;DHT22;13826;51.186;4.450;2023-06-26T11:06:14;34.90;99.90
26053;DHT22;13826;51.186;4.450;2023-06-26T11:08:47;35.30;99.90
26053;DHT22;13826;51.186;4.450;2023-06-26T11:11:13;35.10;99.90
26053;DHT22;13826;51.186;4.450;2023-06-26T11:13:39;33.90;99.90
26053;DHT22;13826;51.186;4.450;2023-06-26T11:16:05;34.40;99.90
26053;DHT22;13826;51.186;4.450;2023-06-26T11:18:31;35.10;99.90
26053;DHT22;13826;51.186;4.450;2023-06-26T11:21:09;35.20;99.90
26053;DHT22;13826;51.186;4.450;2023-06-26T11:23:36;33.90;99.90
26053;DHT22;13826;51.186;4.450;2023-06-26T11:26:18;33.70;99.90
26053;DHT22;13826;51.186;4.450;2023-06-26T11:28:47;33.80;99.90
26053;DHT22;13826;51.186;4.450;2023-06-26T11:33:51;34.00;99.90
26053;DHT22;13826;51.186;4.450;2023-06-26T11:36:17;34.60;99.90
26053;DHT22;13826;51.186;4.450;2023-06-26T11:38:42;34.00;99.90
26053;DHT22;13826;51.186;4.450;2023-06-26T11:41:08;31.90;99.90
26053;DHT22;13826;51.186;4.450;2023-06-26T11:43:34;31.00;99.90
26053;DHT22;13826;51.186;4.450;2023-06-26T11:45:59;31.50;99.90
26053;DHT22;13826;51.186;4.450;2023-06-26T11:48:25;32.40;99.90
26053;DHT22;13826;51.186;4.450;2023-06-26T11:50:51;31.80;99.90
26053;DHT22;13826;51.186;4.450;2023-06-26T11:53:17;31.70;99.90
26053;DHT22;13826;51.186;4.450;2023-06-26T11:55:42;32.00;99.90
26053;DHT22;13826;51.186;4.450;2023-06-26T11:58:08;31.30;99.90
26053;DHT22;13826;51.186;4.450;2023-06-26T12:00:34;30.60;99.90
26053;DHT22;13826;51.186;4.450;2023-06-26T12:02:59;29.30;99.90
26053;DHT22;13826;51.186;4.450;2023-06-26T12:05:25;29.10;99.90
26053;DHT22;13826;51.186;4.450;2023-06-26T12:07:50;29.40;99.90
26053;DHT22;13826;51.186;4.450;2023-06-26T12:10:16;29.40;99.90
26053;DHT22;13826;51.186;4.450;2023-06-26T12:12:42;29.40;99.90
26053;DHT22;13826;51.186;4.450;2023-06-26T12:15:08;29.30;99.90
26053;DHT22;13826;51.186;4.450;2023-06-26T12:17:36;28.90;99.90
26053;DHT22;13826;51.186;4.450;2023-06-26T12:20:02;28.70;99.90
26053;DHT22;13826;51.186;4.450;2023-06-26T12:22:34;28.80;99.90
26053;DHT22;13826;51.186;4.450;2023-06-26T12:25:00;28.80;99.90
26053;DHT22;13826;51.186;4.450;2023-06-26T12:27:25;28.90;99.90
26053;DHT22;13826;51.186;4.450;2023-06-26T12:29:52;29.10;99.90
26053;DHT22;13826;51.186;4.450;2023-06-26T12:32:24;28.00;99.90
26053;DHT22;13826;51.186;4.450;2023-06-26T12:34:50;28.40;99.90
26053;DHT22;13826;51.186;4.450;2023-06-26T12:37:16;28.60;99.90
26053;DHT22;13826;51.186;4.450;2023-06-26T12:39:48;28.90;99.90
26053;DHT22;13826;51.186;4.450;2023-06-26T12:42:15;29.20;99.90
26053;DHT22;13826;51.186;4.450;2023-06-26T12:44:41;29.00;99.90
26053;DHT22;13826;51.186;4.450;2023-06-26T12:47:06;29.10;99.90
26053;DHT22;13826;51.186;4.450;2023-06-26T12:49:33;29.50;99.90
26053;DHT22;13826;51.186;4.450;2023-06-26T12:52:00;29.70;99.90
26053;DHT22;13826;51.186;4.450;2023-06-26T12:54:26;29.50;99.90
26053;DHT22;13826;51.186;4.450;2023-06-26T12:56:52;29.50;99.90
26053;DHT22;13826;51.186;4.450;2023-06-26T12:59:17;29.70;99.90
26053;DHT22;13826;51.186;4.450;2023-06-26T13:01:43;29.90;99.90
26053;DHT22;13826;51.186;4.450;2023-06-26T13:04:09;29.90;99.90
26053;DHT22;13826;51.186;4.450;2023-06-26T13:06:35;30.10;99.90
26053;DHT22;13826;51.186;4.450;2023-06-26T13:09:01;29.80;99.90
26053;DHT22;13826;51.186;4.450;2023-06-26T13:11:30;29.80;99.90
26053;DHT22;13826;51.186;4.450;2023-06-26T13:13:56;29.30;99.90
26053;DHT22;13826;51.186;4.450;2023-06-26T13:16:21;28.90;99.90
26053;DHT22;13826;51.186;4.450;2023-06-26T13:18:47;28.80;99.90
26053;DHT22;13826;51.186;4.450;2023-06-26T13:21:13;29.20;99.90
26053;DHT22;13826;51.186;4.450;2023-06-26T13:23:39;29.50;99.90
26053;DHT22;13826;51.186;4.450;2023-06-26T13:26:05;29.60;99.90
26053;DHT22;13826;51.186;4.450;2023-06-26T13:28:30;29.20;99.90
26053;DHT22;13826;51.186;4.450;2023-06-26T13:30:56;28.80;99.90
26053;DHT22;13826;51.186;4.450;2023-06-26T13:33:21;28.50;99.90
26053;DHT22;13826;51.186;4.450;2023-06-26T13:35:51;28.20;99.90
26053;DHT22;13826;51.186;4.450;2023-06-26T13:38:18;28.20;99.90
26053;DHT22;13826;51.186;4.450;2023-06-26T13:40:44;27.90;99.90
26053;DHT22;13826;51.186;4.450;2023-06-26T13:43:09;27.60;99.90
26053;DHT22;13826;51.186;4.450;2023-06-26T13:45:35;27.40;99.90
26053;DHT22;13826;51.186;4.450;2023-06-26T13:48:00;27.50;99.90
26053;DHT22;13826;51.186;4.450;2023-06-26T13:50:26;27.40;99.90
26053;DHT22;13826;51.186;4.450;2023-06-26T13:52:51;27.60;99.90
26053;DHT22;13826;51.186;4.450;2023-06-26T13:55:17;27.90;99.90
26053;DHT22;13826;51.186;4.450;2023-06-26T13:57:43;28.20;99.90
26053;DHT22;13826;51.186;4.450;2023-06-26T14:00:09;28.00;99.90
26053;DHT22;13826;51.186;4.450;2023-06-26T14:02:35;27.70;99.90
26053;DHT22;13826;51.186;4.450;2023-06-26T14:05:00;27.70;99.90
26053;DHT22;13826;51.186;4.450;2023-06-26T14:07:26;27.50;99.90
26053;DHT22;13826;51.186;4.450;2023-06-26T14:09:51;27.60;99.90
26053;DHT22;13826;51.186;4.450;2023-06-26T14:12:17;27.70;99.90
26053;DHT22;13826;51.186;4.450;2023-06-26T14:14:43;27.40;99.90
26053;DHT22;13826;51.186;4.450;2023-06-26T14:17:09;27.40;99.90
26053;DHT22;13826;51.186;4.450;2023-06-26T14:19:35;27.50;99.90
26053;DHT22;13826;51.186;4.450;2023-06-26T14:22:01;27.40;99.90
26053;DHT22;13826;51.186;4.450;2023-06-26T14:24:27;27.40;99.90
26053;DHT22;13826;51.186;4.450;2023-06-26T14:26:52;27.20;99.90
26053;DHT22;13826;51.186;4.450;2023-06-26T14:29:18;27.40;99.90
26053;DHT22;13826;51.186;4.450;2023-06-26T14:31:45;27.00;99.90
26053;DHT22;13826;51.186;4.450;2023-06-26T14:34:11;27.10;99.90
26053;DHT22;13826;51.186;4.450;2023-06-26T14:36:36;27.00;99.90
26053;DHT22;13826;51.186;4.450;2023-06-26T14:39:02;27.00;99.90
26053;DHT22;13826;51.186;4.450;2023-06-26T14:41:29;26.70;99.90
26053;DHT22;13826;51.186;4.450;2023-06-26T14:43:55;27.10;99.90
26053;DHT22;13826;51.186;4.450;2023-06-26T14:46:20;27.10;99.90
26053;DHT22;13826;51.186;4.450;2023-06-26T14:48:47;27.10;99.90
26053;DHT22;13826;51.186;4.450;2023-06-26T14:51:13;26.90;99.90
26053;DHT22;13826;51.186;4.450;2023-06-26T14:53:39;27.20;99.90
26053;DHT22;13826;51.186;4.450;2023-06-26T14:56:04;27.20;99.90
26053;DHT22;13826;51.186;4.450;2023-06-26T14:58:31;27.30;99.90
26053;DHT22;13826;51.186;4.450;2023-06-26T15:00:56;27.10;99.90
26053;DHT22;13826;51.186;4.450;2023-06-26T15:03:22;27.20;99.90
26053;DHT22;13826;51.186;4.450;2023-06-26T15:05:48;26.70;99.90
26053;DHT22;13826;51.186;4.450;2023-06-26T15:08:14;26.70;99.90
26053;DHT22;13826;51.186;4.450;2023-06-26T15:10:39;26.90;99.90
26053;DHT22;13826;51.186;4.450;2023-06-26T15:13:05;27.20;99.90
26053;DHT22;13826;51.186;4.450;2023-06-26T15:15:31;27.20;99.90
26053;DHT22;13826;51.186;4.450;2023-06-26T15:17:57;27.00;99.90
26053;DHT22;13826;51.186;4.450;2023-06-26T15:20:22;26.90;99.90
26053;DHT22;13826;51.186;4.450;2023-06-26T15:22:48;26.70;99.90
26053;DHT22;13826;51.186;4.450;2023-06-26T15:25:13;26.90;99.90
26053;DHT22;13826;51.186;4.450;2023-06-26T15:27:39;27.20;99.90
26053;DHT22;13826;51.186;4.450;2023-06-26T15:30:05;27.20;99.90
26053;DHT22;13826;51.186;4.450;2023-06-26T15:32:31;27.20;99.90
26053;DHT22;13826;51.186;4.450;2023-06-26T15:34:56;27.10;99.90
26053;DHT22;13826;51.186;4.450;2023-06-26T15:37:22;26.80;99.90
26053;DHT22;13826;51.186;4.450;2023-06-26T15:39:48;26.80;99.90
26053;DHT22;13826;51.186;4.450;2023-06-26T15:42:14;26.80;99.90
26053;DHT22;13826;51.186;4.450;2023-06-26T15:44:39;26.90;99.90
26053;DHT22;13826;51.186;4.450;2023-06-26T15:47:05;26.80;99.90
26053;DHT22;13826;51.186;4.450;2023-06-26T15:49:31;26.50;99.90